createdAt,value
2023-01-07T00:02:17.547Z,8.30
2023-01-07T00:04:44.810Z,5.95
2023-01-07T00:07:12.518Z,6.90
2023-01-07T00:09:39.869Z,6.75
2023-01-07T00:12:07.191Z,8.00
2023-01-07T00:14:36.747Z,6.50
2023-01-07T00:17:04.185Z,6.47
2023-01-07T00:19:31.493Z,5.65
2023-01-07T00:22:00.177Z,5.30
2023-01-07T00:24:32.029Z,5.72
2023-01-07T00:27:02.690Z,6.13
2023-01-07T00:29:29.923Z,6.32
2023-01-07T00:31:57.579Z,7.85
2023-01-07T00:34:29.738Z,6.45
2023-01-07T00:37:17.249Z,7.60
2023-01-07T00:39:46.952Z,5.47
2023-01-07T00:42:33.151Z,6.57
2023-01-07T00:45:00.423Z,5.70
2023-01-07T00:47:30.224Z,7.25
2023-01-07T00:49:58.043Z,5.57
2023-01-07T00:52:25.644Z,6.97
2023-01-07T00:54:52.834Z,5.07
2023-01-07T00:57:20.457Z,7.03
2023-01-07T00:59:52.474Z,6.53
2023-01-07T01:02:19.934Z,6.03
2023-01-07T01:04:47.279Z,6.32
2023-01-07T01:07:15.715Z,5.32
2023-01-07T01:09:45.517Z,6.10
2023-01-07T01:12:14.902Z,6.18
2023-01-07T01:14:44.510Z,5.63
2023-01-07T01:17:14.283Z,5.93
2023-01-07T01:19:41.476Z,5.53
2023-01-07T01:22:09.073Z,5.80
2023-01-07T01:24:36.163Z,5.13
2023-01-07T01:27:05.768Z,5.30
2023-01-07T01:29:32.947Z,7.22
2023-01-07T01:32:01.073Z,7.60
2023-01-07T01:34:29.642Z,6.78
2023-01-07T01:36:59.531Z,4.90
2023-01-07T01:39:26.931Z,4.80
2023-01-07T01:41:54.251Z,4.85
2023-01-07T01:44:48.298Z,5.38
2023-01-07T01:47:43.005Z,5.07
2023-01-07T01:50:16.539Z,5.78
2023-01-07T01:52:55.793Z,5.38
2023-01-07T01:55:37.929Z,5.57
2023-01-07T01:58:13.779Z,4.95
2023-01-07T02:00:42.886Z,4.97
2023-01-07T02:03:17.054Z,5.03
2023-01-07T02:05:45.735Z,6.45
2023-01-07T02:08:15.059Z,5.65
2023-01-07T02:10:43.011Z,5.57
2023-01-07T02:13:25.704Z,5.35
2023-01-07T02:16:11.766Z,5.53
2023-01-07T02:18:59.195Z,5.53
2023-01-07T02:21:44.948Z,5.60
2023-01-07T02:24:49.371Z,4.55
2023-01-07T02:27:25.828Z,5.63
2023-01-07T02:30:01.933Z,4.47
2023-01-07T02:32:35.243Z,4.50
2023-01-07T02:35:15.321Z,4.97
2023-01-07T02:38:00.732Z,4.40
2023-01-07T02:40:41.220Z,4.80
2023-01-07T02:43:20.623Z,5.30
2023-01-07T02:45:52.365Z,4.63
2023-01-07T02:48:22.235Z,4.90
2023-01-07T02:50:49.826Z,4.80
2023-01-07T02:53:21.051Z,4.10
2023-01-07T02:56:30.496Z,4.47
2023-01-07T02:59:06.898Z,4.93
2023-01-07T03:02:06.026Z,4.85
2023-01-07T03:04:51.958Z,3.75
2023-01-07T03:07:34.848Z,4.32
2023-01-07T03:10:26.554Z,4.72
2023-01-07T03:13:27.844Z,4.18
2023-01-07T03:16:05.535Z,5.50
2023-01-07T03:18:46.363Z,4.65
2023-01-07T03:21:18.927Z,4.93
2023-01-07T03:23:51.894Z,5.40
2023-01-07T03:26:24.983Z,4.22
2023-01-07T03:31:21.543Z,3.70
2023-01-07T03:33:59.823Z,4.28
2023-01-07T03:36:32.952Z,4.03
2023-01-07T03:41:47.814Z,3.83
2023-01-07T03:44:15.067Z,3.75
2023-01-07T03:46:42.728Z,3.72
2023-01-07T03:49:12.731Z,4.75
2023-01-07T03:51:39.954Z,4.00
2023-01-07T03:54:08.881Z,3.97
2023-01-07T03:56:36.368Z,4.05
2023-01-07T03:59:05.940Z,4.57
2023-01-07T04:01:33.245Z,3.97
2023-01-07T04:04:03.121Z,4.57
2023-01-07T04:06:33.271Z,3.50
2023-01-07T04:09:00.644Z,3.40
2023-01-07T04:11:28.308Z,3.50
2023-01-07T04:14:00.632Z,3.03
2023-01-07T04:16:29.238Z,3.85
2023-01-07T04:18:56.896Z,3.70
2023-01-07T04:21:26.552Z,4.22
2023-01-07T04:23:57.135Z,4.28
2023-01-07T04:26:24.315Z,4.97
2023-01-07T04:28:51.908Z,3.33
2023-01-07T04:31:21.530Z,3.85
2023-01-07T04:33:48.977Z,4.03
2023-01-07T04:36:18.685Z,4.43
2023-01-07T04:38:46.346Z,4.00
2023-01-07T04:41:16.506Z,3.78
2023-01-07T04:43:44.920Z,3.70
2023-01-07T04:46:12.128Z,3.85
2023-01-07T04:48:39.581Z,3.97
2023-01-07T04:51:07.763Z,4.70
2023-01-07T04:53:35.163Z,3.80
2023-01-07T04:56:06.208Z,3.42
2023-01-07T04:58:37.126Z,3.22
2023-01-07T05:01:04.745Z,3.53
2023-01-07T05:03:37.267Z,3.47
2023-01-07T05:06:05.875Z,4.40
2023-01-07T05:08:34.424Z,4.22
2023-01-07T05:11:03.814Z,3.25
2023-01-07T05:13:36.340Z,3.28
2023-01-07T05:16:05.249Z,3.65
2023-01-07T05:18:33.548Z,3.90
2023-01-07T05:21:03.639Z,4.00
2023-01-07T05:23:33.216Z,3.63
2023-01-07T05:26:03.687Z,3.80
2023-01-07T05:28:32.290Z,4.00
2023-01-07T05:31:02.124Z,3.25
2023-01-07T05:33:32.866Z,3.60
2023-01-07T05:36:03.197Z,3.47
2023-01-07T05:38:33.138Z,5.22
2023-01-07T05:41:05.433Z,3.47
2023-01-07T05:43:32.966Z,4.10
2023-01-07T05:46:00.753Z,3.78
2023-01-07T05:48:28.389Z,3.22
2023-01-07T05:50:55.614Z,3.40
2023-01-07T05:53:25.316Z,3.60
2023-01-07T05:56:01.528Z,3.55
2023-01-07T05:58:29.336Z,4.18
2023-01-07T06:00:56.612Z,3.60
2023-01-07T06:03:27.322Z,2.72
2023-01-07T06:05:56.748Z,3.80
2023-01-07T06:08:24.116Z,3.70
2023-01-07T06:10:51.480Z,2.80
2023-01-07T06:57:34.189Z,2.67
2023-01-07T07:00:01.341Z,3.22
2023-01-07T07:02:29.128Z,3.20
2023-01-07T07:04:56.288Z,4.13
2023-01-07T07:07:24.230Z,3.92
2023-01-07T07:09:53.484Z,3.97
2023-01-07T07:12:24.128Z,3.10
2023-01-07T07:14:51.229Z,3.22
2023-01-07T07:17:18.678Z,3.63
2023-01-07T07:19:45.993Z,3.70
2023-01-07T07:22:15.582Z,3.08
2023-01-07T07:24:43.037Z,2.80
2023-01-07T07:27:10.453Z,3.00
2023-01-07T07:29:37.574Z,2.58
2023-01-07T10:16:24.054Z,1.58
2023-01-07T10:19:18.513Z,2.63
2023-01-07T10:22:02.921Z,5.35
2023-01-07T10:24:41.645Z,1.73
2023-01-07T10:27:17.576Z,1.67
2023-01-07T10:29:52.970Z,2.08
2023-01-07T10:32:25.689Z,2.50
2023-01-07T10:34:57.199Z,2.27
2023-01-07T10:37:41.669Z,1.42
2023-01-07T10:40:27.765Z,1.98
2023-01-07T10:43:48.898Z,1.48
2023-01-07T10:47:02.840Z,2.03
2023-01-07T10:50:12.660Z,2.55
2023-01-07T10:52:58.701Z,1.75
2023-01-07T10:55:47.643Z,2.38
2023-01-07T10:58:14.784Z,1.95
2023-01-07T11:00:42.419Z,3.75
2023-01-07T11:03:20.044Z,3.50
2023-01-07T11:05:54.122Z,3.65
2023-01-07T11:08:38.041Z,4.93
2023-01-07T11:11:06.763Z,4.00
2023-01-07T11:13:37.834Z,5.18
2023-01-07T11:16:12.493Z,4.20
2023-01-07T11:19:09.123Z,3.08
2023-01-07T11:21:42.457Z,2.80
2023-01-07T11:24:27.081Z,4.65
2023-01-07T11:27:25.313Z,2.53
2023-01-07T11:29:59.922Z,3.90
2023-01-07T11:32:30.569Z,3.75
2023-01-07T11:35:01.157Z,2.65
2023-01-07T11:37:38.496Z,3.38
2023-01-07T11:40:19.179Z,2.55
2023-01-07T11:42:55.736Z,2.20
2023-01-07T11:46:20.441Z,4.25
2023-01-07T11:48:49.913Z,3.33
2023-01-07T11:51:17.146Z,3.38
2023-01-07T11:54:06.200Z,2.65
2023-01-07T11:56:34.377Z,2.40
2023-01-07T11:59:14.234Z,3.15
2023-01-07T12:01:44.162Z,2.90
2023-01-07T12:04:25.159Z,3.08
2023-01-07T12:06:55.383Z,2.47
2023-01-07T12:09:36.749Z,3.30
2023-01-07T12:12:34.676Z,3.58
2023-01-07T12:15:18.188Z,2.97
2023-01-07T12:17:49.596Z,3.63
2023-01-07T12:20:28.260Z,2.63
2023-01-07T12:23:28.297Z,3.75
2023-01-07T12:26:16.917Z,3.00
2023-01-07T12:28:52.324Z,3.50
2023-01-07T12:34:08.161Z,2.88
2023-01-07T12:36:52.964Z,3.65
2023-01-07T12:39:30.447Z,2.78
2023-01-07T12:42:06.558Z,3.65
2023-01-07T12:44:39.457Z,3.60
2023-01-07T12:47:31.249Z,4.82
2023-01-07T12:50:26.186Z,5.00
2023-01-07T12:53:02.276Z,4.88
2023-01-07T12:55:59.493Z,3.90
2023-01-07T12:58:45.865Z,4.75
2023-01-07T13:01:18.287Z,4.90
2023-01-07T13:04:09.474Z,3.17
2023-01-07T13:06:50.433Z,3.92
2023-01-07T13:09:23.693Z,4.53
2023-01-07T13:12:40.495Z,5.00
2023-01-07T13:15:22.591Z,4.88
2023-01-07T13:17:53.503Z,4.32
2023-01-07T13:20:36.631Z,6.57
2023-01-07T13:23:11.428Z,4.50
2023-01-07T13:26:02.045Z,7.00
2023-01-07T13:29:00.537Z,5.38
2023-01-07T13:31:54.652Z,5.30
2023-01-07T13:34:45.093Z,4.88
2023-01-07T13:37:43.228Z,3.80
2023-01-07T13:40:25.636Z,3.53
2023-01-07T13:43:14.525Z,4.63
2023-01-07T13:45:50.978Z,2.97
2023-01-07T13:48:22.440Z,4.18
2023-01-07T13:51:05.780Z,3.72
2023-01-07T13:53:46.257Z,3.17
2023-01-07T13:56:16.589Z,3.42
2023-01-07T13:58:57.243Z,4.05
2023-01-07T14:01:26.994Z,3.80
2023-01-07T14:04:06.787Z,2.70
2023-01-07T14:06:38.993Z,2.75
2023-01-07T14:09:06.371Z,2.73
2023-01-07T14:11:33.692Z,3.67
2023-01-07T14:14:31.348Z,2.97
2023-01-07T14:17:17.732Z,2.55
2023-01-07T14:20:14.713Z,3.47
2023-01-07T14:22:42.103Z,3.47
2023-01-07T14:25:35.080Z,3.75
2023-01-07T14:28:44.965Z,2.83
2023-01-07T14:31:26.498Z,4.80
2023-01-07T14:34:04.926Z,3.55
2023-01-07T14:37:01.749Z,3.05
2023-01-07T14:39:41.250Z,4.15
2023-01-07T14:42:27.087Z,2.75
2023-01-07T14:44:54.429Z,2.90
2023-01-07T14:47:43.881Z,3.13
2023-01-07T14:50:23.441Z,3.03
2023-01-07T14:53:03.068Z,2.70
2023-01-07T14:55:57.995Z,2.58
2023-01-07T14:58:37.253Z,2.78
2023-01-07T15:01:21.967Z,3.22
2023-01-07T15:04:07.605Z,3.10
2023-01-07T15:06:43.265Z,2.95
2023-01-07T15:09:36.275Z,3.25
2023-01-07T15:12:27.152Z,2.42
2023-01-07T15:15:25.672Z,3.03
2023-01-07T15:17:52.827Z,1.90
2023-01-07T15:20:27.992Z,3.08
2023-01-07T15:23:04.335Z,2.65
2023-01-07T15:25:50.872Z,2.63
2023-01-07T15:28:17.977Z,3.28
2023-01-07T15:31:12.816Z,2.72
2023-01-07T15:34:17.126Z,2.22
2023-01-07T15:36:50.663Z,2.90
2023-01-07T15:39:26.976Z,3.03
2023-01-07T15:41:55.408Z,3.22
2023-01-07T15:44:29.010Z,2.63
2023-01-07T15:46:56.858Z,3.38
2023-01-07T15:49:26.218Z,2.60
2023-01-07T15:51:59.455Z,2.67
2023-01-07T15:57:28.952Z,2.83
2023-01-07T15:59:57.152Z,3.05
2023-01-07T16:02:31.670Z,3.03
2023-01-07T16:05:02.509Z,3.13
2023-01-07T16:07:48.483Z,3.65
2023-01-07T16:10:22.337Z,2.70
2023-01-07T16:12:56.776Z,1.92
2023-01-07T16:15:32.378Z,3.20
2023-01-07T16:18:04.561Z,2.80
2023-01-07T16:20:49.831Z,2.63
2023-01-07T16:23:21.354Z,3.28
2023-01-07T16:25:57.697Z,2.60
2023-01-07T16:28:30.840Z,2.55
2023-01-07T16:31:00.275Z,2.92
2023-01-07T16:33:33.481Z,1.88
2023-01-07T16:36:04.946Z,3.08
2023-01-07T16:38:36.494Z,2.65
2023-01-07T16:41:06.270Z,3.40
2023-01-07T16:43:33.854Z,3.20
2023-01-07T16:46:17.831Z,3.00
2023-01-07T16:48:46.742Z,3.17
2023-01-07T16:51:44.519Z,3.45
2023-01-07T16:54:44.812Z,3.72
2023-01-07T16:57:15.106Z,3.30
2023-01-07T16:59:55.240Z,3.45
2023-01-07T17:02:39.209Z,3.63
2023-01-07T17:05:31.016Z,4.00
2023-01-07T17:08:05.632Z,3.60
2023-01-07T17:10:40.490Z,3.25
2023-01-07T17:13:35.862Z,3.65
2023-01-07T17:16:26.258Z,3.97
2023-01-07T17:18:56.315Z,3.97
2023-01-07T17:21:32.045Z,3.17
2023-01-07T17:23:59.291Z,4.65
2023-01-07T17:26:30.973Z,4.68
2023-01-07T17:29:18.971Z,3.67
2023-01-07T17:31:47.079Z,4.60
2023-01-07T17:34:15.791Z,6.35
2023-01-07T17:36:43.113Z,3.95
2023-01-07T17:39:13.465Z,4.05
2023-01-07T17:41:59.292Z,4.70
2023-01-07T17:44:26.869Z,3.80
2023-01-07T17:46:58.830Z,4.97
2023-01-07T17:49:26.871Z,4.57
2023-01-07T17:51:54.912Z,6.63
2023-01-07T17:54:26.112Z,3.60
2023-01-07T17:56:54.303Z,4.93
2023-01-07T17:59:23.367Z,3.45
2023-01-07T18:01:54.794Z,4.35
2023-01-07T18:04:25.159Z,6.45
2023-01-07T18:06:54.485Z,4.47
2023-01-07T18:09:24.106Z,5.30
2023-01-07T18:12:10.125Z,5.15
2023-01-07T18:14:38.864Z,4.55
2023-01-07T18:17:07.454Z,6.47
2023-01-07T18:19:35.126Z,5.05
2023-01-07T18:22:02.544Z,4.93
2023-01-07T18:24:30.141Z,3.30
2023-01-07T18:26:57.440Z,3.67
2023-01-07T18:29:24.936Z,3.58
2023-01-07T18:31:52.177Z,5.60
2023-01-07T18:34:19.518Z,4.38
2023-01-07T18:36:46.758Z,4.15
2023-01-07T18:39:20.714Z,3.65
2023-01-07T18:41:54.155Z,3.70
2023-01-07T18:44:24.120Z,4.38
2023-01-07T18:46:53.890Z,4.25
2023-01-07T18:49:21.215Z,4.10
2023-01-07T18:51:48.649Z,3.58
2023-01-07T18:54:16.424Z,6.78
2023-01-07T18:56:46.808Z,3.92
2023-01-07T18:59:16.457Z,4.65
2023-01-07T19:01:43.933Z,3.63
2023-01-07T19:04:13.509Z,3.55
2023-01-07T19:06:43.643Z,4.00
2023-01-07T19:09:11.162Z,4.40
2023-01-07T19:11:38.490Z,4.40
2023-01-07T19:14:05.935Z,4.00
2023-01-07T19:16:33.417Z,4.13
2023-01-07T19:19:01.015Z,4.82
2023-01-07T19:21:30.619Z,3.80
2023-01-07T19:23:58.876Z,3.58
2023-01-07T19:26:27.301Z,3.70
2023-01-07T19:28:55.680Z,3.90
2023-01-07T19:31:22.943Z,3.80
2023-01-07T19:33:50.460Z,6.32
2023-01-07T19:36:18.657Z,4.20
2023-01-07T19:38:48.489Z,4.75
2023-01-07T19:41:20.066Z,5.95
2023-01-07T19:43:52.290Z,5.40
2023-01-07T19:46:20.220Z,4.95
2023-01-07T19:48:47.861Z,4.93
2023-01-07T19:51:15.429Z,5.00
2023-01-07T19:53:47.894Z,4.65
2023-01-07T19:56:15.183Z,4.18
2023-01-07T19:58:43.025Z,4.07
2023-01-07T20:01:19.547Z,5.30
2023-01-07T20:03:46.910Z,4.80
2023-01-07T20:06:17.176Z,4.90
2023-01-07T20:08:45.482Z,4.05
2023-01-07T20:11:13.616Z,4.63
2023-01-07T20:13:46.912Z,4.43
2023-01-07T20:18:46.273Z,4.63
2023-01-07T20:21:15.193Z,3.90
2023-01-07T20:23:42.960Z,3.42
2023-01-07T20:26:13.175Z,4.10
2023-01-07T20:28:40.965Z,4.30
2023-01-07T20:31:10.962Z,3.85
2023-01-07T20:33:38.633Z,5.13
2023-01-07T20:36:08.749Z,3.97
2023-01-07T20:38:37.511Z,3.65
2023-01-07T20:41:06.569Z,3.63
2023-01-07T20:43:35.548Z,4.13
2023-01-07T20:46:05.087Z,4.30
2023-01-07T20:48:34.129Z,4.05
2023-01-07T20:51:08.589Z,3.65
2023-01-07T20:53:37.063Z,3.75
2023-01-07T20:56:05.824Z,3.53
2023-01-07T20:58:35.829Z,3.92
2023-01-07T21:01:08.408Z,3.70
2023-01-07T21:03:37.495Z,3.15
2023-01-07T21:06:13.349Z,3.20
2023-01-07T21:08:43.194Z,4.05
2023-01-07T21:11:16.138Z,4.00
2023-01-07T21:13:43.857Z,4.05
2023-01-07T21:16:12.064Z,3.22
2023-01-07T21:18:43.068Z,3.78
2023-01-07T21:21:15.943Z,4.25
2023-01-07T21:23:46.739Z,4.50
2023-01-07T21:26:14.909Z,4.68
2023-01-07T21:28:45.164Z,5.90
2023-01-07T21:31:15.349Z,5.88
2023-01-07T21:33:43.417Z,6.53
2023-01-07T21:36:15.821Z,7.03
2023-01-07T21:38:43.473Z,7.83
2023-01-07T21:41:13.662Z,6.25
2023-01-07T21:43:41.507Z,6.55
2023-01-07T21:46:09.230Z,7.60
2023-01-07T21:48:39.724Z,7.53
2023-01-07T21:51:10.715Z,8.25
2023-01-07T21:53:38.332Z,8.18
2023-01-07T21:56:16.468Z,7.65
2023-01-07T21:58:46.773Z,8.27
2023-01-07T22:01:15.006Z,6.78
2023-01-07T22:03:47.515Z,8.50
2023-01-07T22:06:21.748Z,8.95
2023-01-07T22:08:50.021Z,6.65
2023-01-07T22:11:18.070Z,9.15
2023-01-07T22:13:49.507Z,8.13
2023-01-07T22:16:16.881Z,9.77
2023-01-07T22:18:46.851Z,7.47
2023-01-07T22:21:16.983Z,8.02
2023-01-07T22:23:45.829Z,6.40
2023-01-07T22:26:14.759Z,8.77
2023-01-07T22:28:45.661Z,8.98
2023-01-07T22:31:19.498Z,8.30
2023-01-07T22:33:46.866Z,6.15
2023-01-07T22:36:27.493Z,10.63
2023-01-07T22:38:58.854Z,7.50
2023-01-07T22:41:30.086Z,9.07
2023-01-07T22:44:06.107Z,9.00
2023-01-07T22:46:38.112Z,6.20
2023-01-07T22:49:06.494Z,8.13
2023-01-07T22:51:42.594Z,7.50
2023-01-07T22:54:12.261Z,7.20
2023-01-07T22:56:42.849Z,7.65
2023-01-07T22:59:12.381Z,7.35
2023-01-07T23:01:40.153Z,7.55
2023-01-07T23:04:07.961Z,8.02
2023-01-07T23:06:35.416Z,6.78
2023-01-07T23:09:05.804Z,6.43
2023-01-07T23:11:48.650Z,6.70
2023-01-07T23:14:18.817Z,7.88
2023-01-07T23:16:46.834Z,6.32
2023-01-07T23:19:14.728Z,6.00
2023-01-07T23:21:43.688Z,7.80
2023-01-07T23:24:12.604Z,8.25
2023-01-07T23:26:40.938Z,7.65
2023-01-07T23:29:10.789Z,7.13
2023-01-07T23:31:40.312Z,7.47
2023-01-07T23:34:08.180Z,7.78
2023-01-07T23:36:37.398Z,7.75
2023-01-07T23:39:06.047Z,5.97
2023-01-07T23:41:33.344Z,6.53
2023-01-07T23:44:03.401Z,7.07
2023-01-07T23:46:31.682Z,6.22
2023-01-07T23:49:02.056Z,6.13
2023-01-07T23:51:29.279Z,6.43
2023-01-07T23:53:56.519Z,5.75
2023-01-07T23:56:23.880Z,6.20
2023-01-07T23:58:51.246Z,6.18
